sensor_id;sensor_type;location;lat;lon;timestamp;temperature;humidity
18654;DHT22;9456;47.824;16.228;2023-04-01T00:00:08;10.40;65.10
18654;DHT22;9456;47.824;16.228;2023-04-01T00:02:37;10.40;65.30
18654;DHT22;9456;47.824;16.228;2023-04-01T00:05:08;10.30;64.90
18654;DHT22;9456;47.824;16.228;2023-04-01T00:07:38;10.30;65.30
18654;DHT22;9456;47.824;16.228;2023-04-01T00:10:09;10.30;65.10
18654;DHT22;9456;47.824;16.228;2023-04-01T00:12:37;10.30;65.40
18654;DHT22;9456;47.824;16.228;2023-04-01T00:15:08;10.30;64.80
18654;DHT22;9456;47.824;16.228;2023-04-01T00:17:37;10.30;65.20
18654;DHT22;9456;47.824;16.228;2023-04-01T00:20:08;10.30;65.10
18654;DHT22;9456;47.824;16.228;2023-04-01T00:22:37;10.20;65.10
18654;DHT22;9456;47.824;16.228;2023-04-01T00:25:07;10.20;65.80
18654;DHT22;9456;47.824;16.228;2023-04-01T00:27:36;10.10;66.00
18654;DHT22;9456;47.824;16.228;2023-04-01T00:30:10;10.10;66.20
18654;DHT22;9456;47.824;16.228;2023-04-01T00:32:39;10.00;66.80
18654;DHT22;9456;47.824;16.228;2023-04-01T00:35:09;9.90;68.30
18654;DHT22;9456;47.824;16.228;2023-04-01T00:37:38;9.90;68.60
18654;DHT22;9456;47.824;16.228;2023-04-01T00:40:20;9.90;68.60
18654;DHT22;9456;47.824;16.228;2023-04-01T00:42:39;9.90;68.60
18654;DHT22;9456;47.824;16.228;2023-04-01T00:45:28;9.80;69.00
18654;DHT22;9456;47.824;16.228;2023-04-01T00:47:56;9.90;68.70
18654;DHT22;9456;47.824;16.228;2023-04-01T00:50:25;10.00;67.30
18654;DHT22;9456;47.824;16.228;2023-04-01T00:52:54;10.00;67.00
18654;DHT22;9456;47.824;16.228;2023-04-01T00:55:23;10.10;66.50
18654;DHT22;9456;47.824;16.228;2023-04-01T00:57:52;10.30;65.90
18654;DHT22;9456;47.824;16.228;2023-04-01T01:00:21;10.30;65.80
18654;DHT22;9456;47.824;16.228;2023-04-01T01:02:50;10.30;66.00
18654;DHT22;9456;47.824;16.228;2023-04-01T01:05:19;10.30;66.10
18654;DHT22;9456;47.824;16.228;2023-04-01T01:07:49;10.30;66.30
18654;DHT22;9456;47.824;16.228;2023-04-01T01:10:17;10.30;66.50
18654;DHT22;9456;47.824;16.228;2023-04-01T01:12:48;10.20;66.80
18654;DHT22;9456;47.824;16.228;2023-04-01T01:15:18;10.20;66.70
18654;DHT22;9456;47.824;16.228;2023-04-01T01:17:50;10.30;67.00
18654;DHT22;9456;47.824;16.228;2023-04-01T01:20:46;10.30;66.90
18654;DHT22;9456;47.824;16.228;2023-04-01T01:26:48;10.20;67.60
18654;DHT22;9456;47.824;16.228;2023-04-01T01:32:23;10.10;68.40
18654;DHT22;9456;47.824;16.228;2023-04-01T01:34:50;10.00;68.30
18654;DHT22;9456;47.824;16.228;2023-04-01T01:37:20;10.00;68.60
18654;DHT22;9456;47.824;16.228;2023-04-01T01:39:52;9.80;69.80
18654;DHT22;9456;47.824;16.228;2023-04-01T01:42:17;9.70;70.90
18654;DHT22;9456;47.824;16.228;2023-04-01T01:44:46;9.70;71.30
18654;DHT22;9456;47.824;16.228;2023-04-01T01:47:15;9.60;71.70
18654;DHT22;9456;47.824;16.228;2023-04-01T01:49:44;9.60;71.70
18654;DHT22;9456;47.824;16.228;2023-04-01T01:52:13;9.50;72.30
18654;DHT22;9456;47.824;16.228;2023-04-01T01:54:49;9.40;72.90
18654;DHT22;9456;47.824;16.228;2023-04-01T01:57:19;9.40;72.80
18654;DHT22;9456;47.824;16.228;2023-04-01T01:59:47;9.40;73.00
18654;DHT22;9456;47.824;16.228;2023-04-01T02:02:16;9.40;72.90
18654;DHT22;9456;47.824;16.228;2023-04-01T02:04:45;9.30;73.00
18654;DHT22;9456;47.824;16.228;2023-04-01T02:07:15;9.20;73.40
18654;DHT22;9456;47.824;16.228;2023-04-01T02:09:43;9.10;74.50
18654;DHT22;9456;47.824;16.228;2023-04-01T02:12:12;9.00;74.60
18654;DHT22;9456;47.824;16.228;2023-04-01T02:14:43;9.00;75.10
18654;DHT22;9456;47.824;16.228;2023-04-01T02:17:12;9.00;75.40
18654;DHT22;9456;47.824;16.228;2023-04-01T02:19:43;8.90;75.80
18654;DHT22;9456;47.824;16.228;2023-04-01T02:22:11;8.90;75.60
18654;DHT22;9456;47.824;16.228;2023-04-01T02:24:39;8.80;75.90
18654;DHT22;9456;47.824;16.228;2023-04-01T02:27:08;8.80;76.50
18654;DHT22;9456;47.824;16.228;2023-04-01T02:29:37;8.70;76.60
18654;DHT22;9456;47.824;16.228;2023-04-01T02:32:06;8.70;76.60
18654;DHT22;9456;47.824;16.228;2023-04-01T02:34:36;8.70;76.80
18654;DHT22;9456;47.824;16.228;2023-04-01T02:37:05;8.60;77.10
18654;DHT22;9456;47.824;16.228;2023-04-01T02:39:34;8.60;77.30
18654;DHT22;9456;47.824;16.228;2023-04-01T02:42:03;8.60;77.40
18654;DHT22;9456;47.824;16.228;2023-04-01T02:44:33;8.60;78.00
18654;DHT22;9456;47.824;16.228;2023-04-01T02:47:02;8.60;77.90
18654;DHT22;9456;47.824;16.228;2023-04-01T02:49:31;8.60;77.60
18654;DHT22;9456;47.824;16.228;2023-04-01T02:51:59;8.50;78.10
18654;DHT22;9456;47.824;16.228;2023-04-01T02:54:28;8.70;77.20
18654;DHT22;9456;47.824;16.228;2023-04-01T02:56:57;8.80;77.10
18654;DHT22;9456;47.824;16.228;2023-04-01T02:59:26;8.80;77.20
18654;DHT22;9456;47.824;16.228;2023-04-01T03:01:55;8.90;76.80
18654;DHT22;9456;47.824;16.228;2023-04-01T03:04:25;9.00;76.10
18654;DHT22;9456;47.824;16.228;2023-04-01T03:06:54;9.00;76.10
18654;DHT22;9456;47.824;16.228;2023-04-01T03:09:23;8.90;76.40
18654;DHT22;9456;47.824;16.228;2023-04-01T03:11:52;8.90;76.20
18654;DHT22;9456;47.824;16.228;2023-04-01T03:14:21;8.90;75.90
18654;DHT22;9456;47.824;16.228;2023-04-01T03:16:50;8.80;76.00
18654;DHT22;9456;47.824;16.228;2023-04-01T03:19:19;8.80;76.20
18654;DHT22;9456;47.824;16.228;2023-04-01T03:21:48;8.70;76.90
18654;DHT22;9456;47.824;16.228;2023-04-01T03:24:17;8.60;77.10
18654;DHT22;9456;47.824;16.228;2023-04-01T03:26:46;8.50;77.60
18654;DHT22;9456;47.824;16.228;2023-04-01T03:29:15;8.40;78.70
18654;DHT22;9456;47.824;16.228;2023-04-01T03:31:45;8.30;79.30
18654;DHT22;9456;47.824;16.228;2023-04-01T03:34:14;8.20;79.20
18654;DHT22;9456;47.824;16.228;2023-04-01T03:36:44;8.10;80.00
18654;DHT22;9456;47.824;16.228;2023-04-01T03:39:13;8.00;80.90
18654;DHT22;9456;47.824;16.228;2023-04-01T03:41:42;8.00;81.30
18654;DHT22;9456;47.824;16.228;2023-04-01T03:44:11;7.90;81.50
18654;DHT22;9456;47.824;16.228;2023-04-01T03:46:40;7.80;82.20
18654;DHT22;9456;47.824;16.228;2023-04-01T03:49:11;7.80;82.90
18654;DHT22;9456;47.824;16.228;2023-04-01T03:51:40;7.80;83.20
18654;DHT22;9456;47.824;16.228;2023-04-01T03:54:08;7.80;83.40
18654;DHT22;9456;47.824;16.228;2023-04-01T03:56:37;7.70;84.70
18654;DHT22;9456;47.824;16.228;2023-04-01T03:59:06;7.90;82.80
18654;DHT22;9456;47.824;16.228;2023-04-01T04:01:35;8.00;82.50
18654;DHT22;9456;47.824;16.228;2023-04-01T04:04:05;8.10;82.40
18654;DHT22;9456;47.824;16.228;2023-04-01T04:06:34;8.10;81.70
18654;DHT22;9456;47.824;16.228;2023-04-01T04:09:03;8.20;81.40
18654;DHT22;9456;47.824;16.228;2023-04-01T04:11:32;8.10;82.00
18654;DHT22;9456;47.824;16.228;2023-04-01T04:14:01;8.00;82.40
18654;DHT22;9456;47.824;16.228;2023-04-01T04:16:31;7.90;82.90
18654;DHT22;9456;47.824;16.228;2023-04-01T04:19:00;8.00;82.40
18654;DHT22;9456;47.824;16.228;2023-04-01T04:21:29;8.20;81.90
18654;DHT22;9456;47.824;16.228;2023-04-01T04:23:59;8.20;81.40
18654;DHT22;9456;47.824;16.228;2023-04-01T04:26:28;8.20;81.30
18654;DHT22;9456;47.824;16.228;2023-04-01T04:28:57;8.20;81.30
18654;DHT22;9456;47.824;16.228;2023-04-01T04:31:26;8.20;81.40
18654;DHT22;9456;47.824;16.228;2023-04-01T04:33:55;8.20;81.30
18654;DHT22;9456;47.824;16.228;2023-04-01T04:36:24;8.20;81.10
18654;DHT22;9456;47.824;16.228;2023-04-01T04:38:53;8.20;81.10
18654;DHT22;9456;47.824;16.228;2023-04-01T04:41:22;8.20;81.40
18654;DHT22;9456;47.824;16.228;2023-04-01T04:43:52;8.20;81.80
18654;DHT22;9456;47.824;16.228;2023-04-01T04:46:21;8.10;82.10
18654;DHT22;9456;47.824;16.228;2023-04-01T04:48:50;8.10;82.80
18654;DHT22;9456;47.824;16.228;2023-04-01T04:51:19;8.10;83.00
18654;DHT22;9456;47.824;16.228;2023-04-01T04:53:49;8.20;82.50
18654;DHT22;9456;47.824;16.228;2023-04-01T04:56:19;8.20;82.30
18654;DHT22;9456;47.824;16.228;2023-04-01T04:58:48;8.30;82.30
18654;DHT22;9456;47.824;16.228;2023-04-01T05:01:18;8.40;81.80
18654;DHT22;9456;47.824;16.228;2023-04-01T05:03:47;8.50;80.30
18654;DHT22;9456;47.824;16.228;2023-04-01T05:06:15;8.60;79.70
18654;DHT22;9456;47.824;16.228;2023-04-01T05:08:44;8.80;79.10
18654;DHT22;9456;47.824;16.228;2023-04-01T05:11:14;9.00;77.80
18654;DHT22;9456;47.824;16.228;2023-04-01T05:13:43;9.20;77.00
18654;DHT22;9456;47.824;16.228;2023-04-01T05:16:13;9.40;76.10
18654;DHT22;9456;47.824;16.228;2023-04-01T05:18:40;9.70;74.50
18654;DHT22;9456;47.824;16.228;2023-04-01T05:21:10;10.30;72.00
18654;DHT22;9456;47.824;16.228;2023-04-01T05:23:38;11.00;68.50
18654;DHT22;9456;47.824;16.228;2023-04-01T05:26:08;11.60;66.90
18654;DHT22;9456;47.824;16.228;2023-04-01T05:28:36;12.80;63.20
18654;DHT22;9456;47.824;16.228;2023-04-01T05:31:05;14.10;58.20
18654;DHT22;9456;47.824;16.228;2023-04-01T05:33:34;14.40;56.20
18654;DHT22;9456;47.824;16.228;2023-04-01T05:36:10;14.00;56.60
18654;DHT22;9456;47.824;16.228;2023-04-01T05:38:39;13.60;57.70
18654;DHT22;9456;47.824;16.228;2023-04-01T05:41:09;13.40;57.90
18654;DHT22;9456;47.824;16.228;2023-04-01T05:43:38;13.40;58.60
18654;DHT22;9456;47.824;16.228;2023-04-01T05:46:07;13.20;59.00
18654;DHT22;9456;47.824;16.228;2023-04-01T05:48:36;13.00;59.00
18654;DHT22;9456;47.824;16.228;2023-04-01T05:51:05;12.90;59.70
18654;DHT22;9456;47.824;16.228;2023-04-01T05:53:34;12.70;60.60
18654;DHT22;9456;47.824;16.228;2023-04-01T05:56:05;12.60;60.80
18654;DHT22;9456;47.824;16.228;2023-04-01T05:58:34;12.50;60.50
18654;DHT22;9456;47.824;16.228;2023-04-01T06:01:04;12.30;61.10
18654;DHT22;9456;47.824;16.228;2023-04-01T06:03:32;12.20;61.50
18654;DHT22;9456;47.824;16.228;2023-04-01T06:06:02;12.10;61.50
18654;DHT22;9456;47.824;16.228;2023-04-01T06:08:31;12.10;62.30
18654;DHT22;9456;47.824;16.228;2023-04-01T06:11:05;12.00;62.00
18654;DHT22;9456;47.824;16.228;2023-04-01T06:13:40;12.00;62.50
18654;DHT22;9456;47.824;16.228;2023-04-01T06:16:11;12.10;62.80
18654;DHT22;9456;47.824;16.228;2023-04-01T06:18:54;12.60;61.00
18654;DHT22;9456;47.824;16.228;2023-04-01T06:21:43;12.90;59.00
18654;DHT22;9456;47.824;16.228;2023-04-01T06:24:19;13.00;58.80
18654;DHT22;9456;47.824;16.228;2023-04-01T06:26:48;13.00;58.70
18654;DHT22;9456;47.824;16.228;2023-04-01T06:29:28;13.10;58.50
18654;DHT22;9456;47.824;16.228;2023-04-01T06:32:09;13.30;58.60
18654;DHT22;9456;47.824;16.228;2023-04-01T06:35:17;14.20;56.30
18654;DHT22;9456;47.824;16.228;2023-04-01T06:41:00;14.70;55.20
18654;DHT22;9456;47.824;16.228;2023-04-01T06:43:33;15.50;53.00
18654;DHT22;9456;47.824;16.228;2023-04-01T06:46:02;15.90;52.10
18654;DHT22;9456;47.824;16.228;2023-04-01T06:48:36;15.90;51.40
18654;DHT22;9456;47.824;16.228;2023-04-01T06:51:07;15.70;51.60
18654;DHT22;9456;47.824;16.228;2023-04-01T06:53:35;16.20;52.10
18654;DHT22;9456;47.824;16.228;2023-04-01T06:56:05;17.50;47.50
18654;DHT22;9456;47.824;16.228;2023-04-01T06:58:34;17.80;47.00
18654;DHT22;9456;47.824;16.228;2023-04-01T07:01:04;19.10;45.30
18654;DHT22;9456;47.824;16.228;2023-04-01T07:03:33;20.40;42.80
18654;DHT22;9456;47.824;16.228;2023-04-01T07:06:02;22.70;39.10
18654;DHT22;9456;47.824;16.228;2023-04-01T07:08:31;24.40;36.00
18654;DHT22;9456;47.824;16.228;2023-04-01T07:11:01;25.90;33.30
18654;DHT22;9456;47.824;16.228;2023-04-01T07:13:32;27.20;31.40
18654;DHT22;9456;47.824;16.228;2023-04-01T07:16:04;27.70;29.90
18654;DHT22;9456;47.824;16.228;2023-04-01T07:18:37;27.10;29.60
18654;DHT22;9456;47.824;16.228;2023-04-01T07:21:04;26.50;29.80
18654;DHT22;9456;47.824;16.228;2023-04-01T07:23:36;25.90;31.40
18654;DHT22;9456;47.824;16.228;2023-04-01T07:26:06;25.60;31.50
18654;DHT22;9456;47.824;16.228;2023-04-01T07:28:33;25.30;31.40
18654;DHT22;9456;47.824;16.228;2023-04-01T07:31:07;25.30;31.30
18654;DHT22;9456;47.824;16.228;2023-04-01T07:33:37;24.80;32.20
18654;DHT22;9456;47.824;16.228;2023-04-01T07:36:07;24.80;32.80
18654;DHT22;9456;47.824;16.228;2023-04-01T07:38:38;25.00;32.80
18654;DHT22;9456;47.824;16.228;2023-04-01T07:41:07;24.80;31.90
18654;DHT22;9456;47.824;16.228;2023-04-01T07:43:46;24.50;32.20
18654;DHT22;9456;47.824;16.228;2023-04-01T07:46:19;24.60;31.60
18654;DHT22;9456;47.824;16.228;2023-04-01T07:48:49;24.50;32.70
18654;DHT22;9456;47.824;16.228;2023-04-01T07:51:18;24.30;31.80
18654;DHT22;9456;47.824;16.228;2023-04-01T07:53:48;23.30;32.70
18654;DHT22;9456;47.824;16.228;2023-04-01T07:56:17;22.10;34.70
18654;DHT22;9456;47.824;16.228;2023-04-01T07:58:54;21.50;35.60
18654;DHT22;9456;47.824;16.228;2023-04-01T08:01:23;20.60;37.00
18654;DHT22;9456;47.824;16.228;2023-04-01T08:03:59;20.70;37.90
18654;DHT22;9456;47.824;16.228;2023-04-01T08:06:27;20.30;37.30
18654;DHT22;9456;47.824;16.228;2023-04-01T08:08:59;19.90;36.90
18654;DHT22;9456;47.824;16.228;2023-04-01T08:11:34;20.10;38.60
18654;DHT22;9456;47.824;16.228;2023-04-01T08:14:06;21.40;35.70
18654;DHT22;9456;47.824;16.228;2023-04-01T08:16:34;21.40;36.60
18654;DHT22;9456;47.824;16.228;2023-04-01T08:19:04;21.80;35.70
18654;DHT22;9456;47.824;16.228;2023-04-01T08:21:32;21.50;37.20
18654;DHT22;9456;47.824;16.228;2023-04-01T08:24:04;21.50;37.00
18654;DHT22;9456;47.824;16.228;2023-04-01T08:26:34;21.40;37.30
18654;DHT22;9456;47.824;16.228;2023-04-01T08:29:04;21.40;37.00
18654;DHT22;9456;47.824;16.228;2023-04-01T08:31:32;21.10;37.30
18654;DHT22;9456;47.824;16.228;2023-04-01T08:34:01;20.30;37.80
18654;DHT22;9456;47.824;16.228;2023-04-01T08:36:31;19.30;40.10
18654;DHT22;9456;47.824;16.228;2023-04-01T08:39:01;19.30;40.00
18654;DHT22;9456;47.824;16.228;2023-04-01T08:41:51;19.80;38.50
18654;DHT22;9456;47.824;16.228;2023-04-01T08:44:35;20.70;38.20
18654;DHT22;9456;47.824;16.228;2023-04-01T08:47:30;21.70;37.30
18654;DHT22;9456;47.824;16.228;2023-04-01T08:50:08;21.90;36.90
18654;DHT22;9456;47.824;16.228;2023-04-01T08:52:37;21.50;37.00
18654;DHT22;9456;47.824;16.228;2023-04-01T08:58:15;22.30;35.70
18654;DHT22;9456;47.824;16.228;2023-04-01T09:00:42;22.40;35.70
18654;DHT22;9456;47.824;16.228;2023-04-01T09:03:38;23.40;34.70
18654;DHT22;9456;47.824;16.228;2023-04-01T09:06:39;24.30;32.60
18654;DHT22;9456;47.824;16.228;2023-04-01T09:09:23;25.30;31.70
18654;DHT22;9456;47.824;16.228;2023-04-01T09:12:01;25.80;31.60
18654;DHT22;9456;47.824;16.228;2023-04-01T09:14:47;26.30;30.70
18654;DHT22;9456;47.824;16.228;2023-04-01T09:17:30;26.60;30.90
18654;DHT22;9456;47.824;16.228;2023-04-01T09:20:23;26.40;29.90
18654;DHT22;9456;47.824;16.228;2023-04-01T09:22:56;25.20;31.80
18654;DHT22;9456;47.824;16.228;2023-04-01T09:25:40;24.10;32.40
18654;DHT22;9456;47.824;16.228;2023-04-01T09:28:12;23.80;32.80
18654;DHT22;9456;47.824;16.228;2023-04-01T09:31:17;22.80;34.50
18654;DHT22;9456;47.824;16.228;2023-04-01T09:39:40;22.50;34.70
18654;DHT22;9456;47.824;16.228;2023-04-01T09:48:21;24.50;32.30
18654;DHT22;9456;47.824;16.228;2023-04-01T09:50:53;23.40;32.10
18654;DHT22;9456;47.824;16.228;2023-04-01T09:53:28;22.90;34.00
18654;DHT22;9456;47.824;16.228;2023-04-01T09:56:17;23.00;34.50
18654;DHT22;9456;47.824;16.228;2023-04-01T10:08:38;22.30;35.00
18654;DHT22;9456;47.824;16.228;2023-04-01T10:11:23;22.00;35.20
18654;DHT22;9456;47.824;16.228;2023-04-01T10:14:22;21.30;36.10
18654;DHT22;9456;47.824;16.228;2023-04-01T10:17:22;20.60;38.20
18654;DHT22;9456;47.824;16.228;2023-04-01T10:26:07;20.10;39.90
18654;DHT22;9456;47.824;16.228;2023-04-01T10:28:54;21.20;37.90
18654;DHT22;9456;47.824;16.228;2023-04-01T10:35:14;21.60;37.00
18654;DHT22;9456;47.824;16.228;2023-04-01T10:37:56;21.00;38.50
18654;DHT22;9456;47.824;16.228;2023-04-01T10:47:48;18.40;41.70
18654;DHT22;9456;47.824;16.228;2023-04-01T10:50:44;17.70;41.60
18654;DHT22;9456;47.824;16.228;2023-04-01T11:05:38;17.80;43.20
18654;DHT22;9456;47.824;16.228;2023-04-01T11:11:46;18.90;40.50
18654;DHT22;9456;47.824;16.228;2023-04-01T11:20:49;18.90;39.70
18654;DHT22;9456;47.824;16.228;2023-04-01T11:23:34;18.80;39.50
18654;DHT22;9456;47.824;16.228;2023-04-01T11:26:15;18.70;38.90
18654;DHT22;9456;47.824;16.228;2023-04-01T11:29:18;18.70;40.50
18654;DHT22;9456;47.824;16.228;2023-04-01T11:31:52;19.20;40.90
18654;DHT22;9456;47.824;16.228;2023-04-01T11:34:53;18.60;38.80
18654;DHT22;9456;47.824;16.228;2023-04-01T11:37:29;18.50;40.70
18654;DHT22;9456;47.824;16.228;2023-04-01T11:40:02;18.40;40.60
18654;DHT22;9456;47.824;16.228;2023-04-01T11:42:32;18.30;41.10
18654;DHT22;9456;47.824;16.228;2023-04-01T11:45:06;18.30;40.20
18654;DHT22;9456;47.824;16.228;2023-04-01T11:47:54;18.50;40.70
18654;DHT22;9456;47.824;16.228;2023-04-01T11:50:25;18.70;40.80
18654;DHT22;9456;47.824;16.228;2023-04-01T11:53:04;18.80;40.30
18654;DHT22;9456;47.824;16.228;2023-04-01T11:55:37;19.00;40.30
18654;DHT22;9456;47.824;16.228;2023-04-01T11:58:12;19.10;39.70
18654;DHT22;9456;47.824;16.228;2023-04-01T12:00:59;18.60;41.00
18654;DHT22;9456;47.824;16.228;2023-04-01T12:06:34;18.10;41.50
18654;DHT22;9456;47.824;16.228;2023-04-01T12:09:04;17.90;41.10
18654;DHT22;9456;47.824;16.228;2023-04-01T12:11:34;17.50;41.10
18654;DHT22;9456;47.824;16.228;2023-04-01T12:14:08;17.20;42.40
18654;DHT22;9456;47.824;16.228;2023-04-01T12:16:44;17.00;41.70
18654;DHT22;9456;47.824;16.228;2023-04-01T12:19:17;16.70;42.10
18654;DHT22;9456;47.824;16.228;2023-04-01T12:21:48;16.80;43.90
18654;DHT22;9456;47.824;16.228;2023-04-01T12:24:48;16.90;42.80
18654;DHT22;9456;47.824;16.228;2023-04-01T12:27:31;17.20;42.50
18654;DHT22;9456;47.824;16.228;2023-04-01T12:30:21;17.10;41.80
18654;DHT22;9456;47.824;16.228;2023-04-01T12:32:52;16.80;43.00
18654;DHT22;9456;47.824;16.228;2023-04-01T12:35:24;16.80;42.80
18654;DHT22;9456;47.824;16.228;2023-04-01T12:37:59;17.00;43.00
18654;DHT22;9456;47.824;16.228;2023-04-01T12:43:32;17.40;42.20
18654;DHT22;9456;47.824;16.228;2023-04-01T12:46:01;17.30;42.30
18654;DHT22;9456;47.824;16.228;2023-04-01T12:48:54;16.90;43.50
18654;DHT22;9456;47.824;16.228;2023-04-01T12:51:30;16.50;45.30
18654;DHT22;9456;47.824;16.228;2023-04-01T12:57:10;16.50;47.60
18654;DHT22;9456;47.824;16.228;2023-04-01T13:00:09;16.40;46.70
18654;DHT22;9456;47.824;16.228;2023-04-01T13:02:43;16.30;47.00
18654;DHT22;9456;47.824;16.228;2023-04-01T13:05:20;16.50;46.10
18654;DHT22;9456;47.824;16.228;2023-04-01T13:08:19;16.50;45.00
18654;DHT22;9456;47.824;16.228;2023-04-01T13:11:00;16.30;45.20
18654;DHT22;9456;47.824;16.228;2023-04-01T13:16:22;16.20;45.70
18654;DHT22;9456;47.824;16.228;2023-04-01T13:18:56;16.30;45.60
18654;DHT22;9456;47.824;16.228;2023-04-01T13:21:28;16.50;45.50
18654;DHT22;9456;47.824;16.228;2023-04-01T13:24:00;16.60;45.20
18654;DHT22;9456;47.824;16.228;2023-04-01T13:26:29;16.50;45.20
18654;DHT22;9456;47.824;16.228;2023-04-01T13:29:01;16.30;45.80
18654;DHT22;9456;47.824;16.228;2023-04-01T13:31:44;16.20;45.90
18654;DHT22;9456;47.824;16.228;2023-04-01T13:34:23;16.10;46.10
18654;DHT22;9456;47.824;16.228;2023-04-01T13:36:56;16.20;45.90
18654;DHT22;9456;47.824;16.228;2023-04-01T13:39:36;16.20;46.50
18654;DHT22;9456;47.824;16.228;2023-04-01T13:42:13;16.30;46.20
18654;DHT22;9456;47.824;16.228;2023-04-01T13:44:41;16.60;44.90
18654;DHT22;9456;47.824;16.228;2023-04-01T13:47:22;16.70;44.60
18654;DHT22;9456;47.824;16.228;2023-04-01T13:50:24;16.80;44.20
18654;DHT22;9456;47.824;16.228;2023-04-01T13:56:01;17.10;44.00
18654;DHT22;9456;47.824;16.228;2023-04-01T13:58:49;17.30;42.60
18654;DHT22;9456;47.824;16.228;2023-04-01T14:01:21;17.20;43.00
18654;DHT22;9456;47.824;16.228;2023-04-01T14:10:08;17.40;42.60
18654;DHT22;9456;47.824;16.228;2023-04-01T14:12:40;17.40;42.90
18654;DHT22;9456;47.824;16.228;2023-04-01T14:15:41;17.50;42.30
18654;DHT22;9456;47.824;16.228;2023-04-01T14:18:25;17.50;42.80
18654;DHT22;9456;47.824;16.228;2023-04-01T14:20:54;17.60;41.80
18654;DHT22;9456;47.824;16.228;2023-04-01T14:26:49;17.70;41.40
18654;DHT22;9456;47.824;16.228;2023-04-01T14:29:23;17.40;41.10
18654;DHT22;9456;47.824;16.228;2023-04-01T14:31:57;17.10;42.80
18654;DHT22;9456;47.824;16.228;2023-04-01T14:34:37;17.10;42.60
18654;DHT22;9456;47.824;16.228;2023-04-01T14:37:17;17.30;42.60
18654;DHT22;9456;47.824;16.228;2023-04-01T14:40:03;17.30;41.50
18654;DHT22;9456;47.824;16.228;2023-04-01T14:45:52;16.70;42.80
18654;DHT22;9456;47.824;16.228;2023-04-01T14:48:25;16.50;43.90
18654;DHT22;9456;47.824;16.228;2023-04-01T14:50:54;16.20;43.50
18654;DHT22;9456;47.824;16.228;2023-04-01T14:53:28;16.10;43.70
18654;DHT22;9456;47.824;16.228;2023-04-01T14:55:57;15.90;44.00
18654;DHT22;9456;47.824;16.228;2023-04-01T14:58:40;15.90;45.10
18654;DHT22;9456;47.824;16.228;2023-04-01T15:01:00;15.80;45.20
18654;DHT22;9456;47.824;16.228;2023-04-01T15:03:30;15.70;44.90
18654;DHT22;9456;47.824;16.228;2023-04-01T15:06:19;15.70;45.30
18654;DHT22;9456;47.824;16.228;2023-04-01T15:08:49;15.40;45.20
18654;DHT22;9456;47.824;16.228;2023-04-01T15:11:23;15.20;45.40
18654;DHT22;9456;47.824;16.228;2023-04-01T15:14:12;15.00;46.50
18654;DHT22;9456;47.824;16.228;2023-04-01T15:16:46;14.60;50.10
18654;DHT22;9456;47.824;16.228;2023-04-01T15:19:18;14.10;56.00
18654;DHT22;9456;47.824;16.228;2023-04-01T15:21:50;13.60;56.90
18654;DHT22;9456;47.824;16.228;2023-04-01T15:24:22;13.20;57.00
18654;DHT22;9456;47.824;16.228;2023-04-01T15:27:14;13.20;57.20
18654;DHT22;9456;47.824;16.228;2023-04-01T15:29:54;13.20;57.40
18654;DHT22;9456;47.824;16.228;2023-04-01T15:32:23;13.30;57.20
18654;DHT22;9456;47.824;16.228;2023-04-01T15:34:54;13.30;57.30
18654;DHT22;9456;47.824;16.228;2023-04-01T15:37:26;13.30;57.60
18654;DHT22;9456;47.824;16.228;2023-04-01T15:39:56;13.30;57.30
18654;DHT22;9456;47.824;16.228;2023-04-01T15:42:43;13.40;56.90
18654;DHT22;9456;47.824;16.228;2023-04-01T15:45:15;13.40;56.80
18654;DHT22;9456;47.824;16.228;2023-04-01T15:47:44;13.40;56.00
18654;DHT22;9456;47.824;16.228;2023-04-01T15:50:35;13.40;56.20
18654;DHT22;9456;47.824;16.228;2023-04-01T15:53:09;13.40;56.70
18654;DHT22;9456;47.824;16.228;2023-04-01T15:55:39;13.50;57.00
18654;DHT22;9456;47.824;16.228;2023-04-01T15:58:21;13.50;56.80
18654;DHT22;9456;47.824;16.228;2023-04-01T16:00:52;13.60;56.70
18654;DHT22;9456;47.824;16.228;2023-04-01T16:03:30;13.60;56.00
18654;DHT22;9456;47.824;16.228;2023-04-01T16:06:09;13.50;55.90
18654;DHT22;9456;47.824;16.228;2023-04-01T16:09:01;13.40;56.60
18654;DHT22;9456;47.824;16.228;2023-04-01T16:11:32;13.50;56.90
18654;DHT22;9456;47.824;16.228;2023-04-01T16:14:06;13.50;56.90
18654;DHT22;9456;47.824;16.228;2023-04-01T16:16:42;13.50;56.70
18654;DHT22;9456;47.824;16.228;2023-04-01T16:19:17;13.50;57.30
18654;DHT22;9456;47.824;16.228;2023-04-01T16:21:48;13.30;57.40
18654;DHT22;9456;47.824;16.228;2023-04-01T16:24:17;13.20;57.80
18654;DHT22;9456;47.824;16.228;2023-04-01T16:26:49;13.20;58.10
18654;DHT22;9456;47.824;16.228;2023-04-01T16:29:21;13.10;58.40
18654;DHT22;9456;47.824;16.228;2023-04-01T16:31:50;13.20;58.70
18654;DHT22;9456;47.824;16.228;2023-04-01T16:34:20;13.10;58.40
18654;DHT22;9456;47.824;16.228;2023-04-01T16:36:49;13.10;58.40
18654;DHT22;9456;47.824;16.228;2023-04-01T16:39:32;13.00;58.60
18654;DHT22;9456;47.824;16.228;2023-04-01T16:42:19;13.00;58.90
18654;DHT22;9456;47.824;16.228;2023-04-01T16:44:50;12.90;59.10
18654;DHT22;9456;47.824;16.228;2023-04-01T16:47:20;12.80;59.10
18654;DHT22;9456;47.824;16.228;2023-04-01T16:49:50;12.80;59.50
18654;DHT22;9456;47.824;16.228;2023-04-01T16:52:29;12.70;60.00
18654;DHT22;9456;47.824;16.228;2023-04-01T16:54:50;12.60;60.10
18654;DHT22;9456;47.824;16.228;2023-04-01T16:57:21;12.50;60.10
18654;DHT22;9456;47.824;16.228;2023-04-01T16:59:54;12.50;60.80
18654;DHT22;9456;47.824;16.228;2023-04-01T17:02:23;12.50;61.00
18654;DHT22;9456;47.824;16.228;2023-04-01T17:04:54;12.50;61.10
18654;DHT22;9456;47.824;16.228;2023-04-01T17:07:26;12.50;61.40
18654;DHT22;9456;47.824;16.228;2023-04-01T17:10:04;12.40;61.70
18654;DHT22;9456;47.824;16.228;2023-04-01T17:12:34;12.40;63.00
18654;DHT22;9456;47.824;16.228;2023-04-01T17:15:04;12.30;64.40
18654;DHT22;9456;47.824;16.228;2023-04-01T17:17:36;12.20;65.30
18654;DHT22;9456;47.824;16.228;2023-04-01T17:20:14;12.10;66.30
18654;DHT22;9456;47.824;16.228;2023-04-01T17:22:44;11.90;67.60
18654;DHT22;9456;47.824;16.228;2023-04-01T17:25:28;11.80;68.20
18654;DHT22;9456;47.824;16.228;2023-04-01T17:27:57;11.60;68.60
18654;DHT22;9456;47.824;16.228;2023-04-01T17:30:32;11.50;69.70
18654;DHT22;9456;47.824;16.228;2023-04-01T17:33:29;11.40;70.00
18654;DHT22;9456;47.824;16.228;2023-04-01T17:35:59;11.30;70.70
18654;DHT22;9456;47.824;16.228;2023-04-01T17:38:56;11.20;71.00
18654;DHT22;9456;47.824;16.228;2023-04-01T17:41:30;11.10;71.10
18654;DHT22;9456;47.824;16.228;2023-04-01T17:44:01;11.00;71.00
18654;DHT22;9456;47.824;16.228;2023-04-01T17:46:33;10.90;71.40
18654;DHT22;9456;47.824;16.228;2023-04-01T17:49:03;10.90;71.70
18654;DHT22;9456;47.824;16.228;2023-04-01T17:51:33;10.80;71.80
18654;DHT22;9456;47.824;16.228;2023-04-01T17:54:05;10.80;72.20
18654;DHT22;9456;47.824;16.228;2023-04-01T17:56:38;10.70;72.60